sensor_id;sensor_type;location;lat;lon;timestamp;P1;durP1;ratioP1;P2;durP2;ratioP2
20982;SDS011;10650;51.528;6.748;2023-04-06T00:02:02;19.38;;;13.65;;
20982;SDS011;10650;51.528;6.748;2023-04-06T00:04:30;19.15;;;13.95;;
20982;SDS011;10650;51.528;6.748;2023-04-06T00:06:59;18.30;;;13.48;;
20982;SDS011;10650;51.528;6.748;2023-04-06T00:09:27;17.70;;;12.85;;
20982;SDS011;10650;51.528;6.748;2023-04-06T00:11:55;17.98;;;13.00;;
20982;SDS011;10650;51.528;6.748;2023-04-06T00:14:24;17.90;;;12.60;;
20982;SDS011;10650;51.528;6.748;2023-04-06T00:16:51;17.27;;;12.75;;
20982;SDS011;10650;51.528;6.748;2023-04-06T00:19:19;16.58;;;13.02;;
20982;SDS011;10650;51.528;6.748;2023-04-06T00:21:47;17.27;;;13.27;;
20982;SDS011;10650;51.528;6.748;2023-04-06T00:24:17;18.08;;;13.40;;
20982;SDS011;10650;51.528;6.748;2023-04-06T00:26:44;18.05;;;12.93;;
20982;SDS011;10650;51.528;6.748;2023-04-06T00:29:12;17.77;;;12.95;;
20982;SDS011;10650;51.528;6.748;2023-04-06T00:31:41;17.17;;;12.38;;
20982;SDS011;10650;51.528;6.748;2023-04-06T00:34:09;18.20;;;13.18;;
20982;SDS011;10650;51.528;6.748;2023-04-06T00:36:37;22.08;;;12.60;;
20982;SDS011;10650;51.528;6.748;2023-04-06T00:39:05;18.20;;;12.60;;
20982;SDS011;10650;51.528;6.748;2023-04-06T00:41:35;17.70;;;11.43;;
20982;SDS011;10650;51.528;6.748;2023-04-06T00:44:03;16.48;;;11.90;;
20982;SDS011;10650;51.528;6.748;2023-04-06T00:46:31;19.83;;;11.77;;
20982;SDS011;10650;51.528;6.748;2023-04-06T00:48:59;14.05;;;10.82;;
20982;SDS011;10650;51.528;6.748;2023-04-06T00:51:27;19.77;;;12.18;;
20982;SDS011;10650;51.528;6.748;2023-04-06T00:53:55;16.73;;;11.93;;
20982;SDS011;10650;51.528;6.748;2023-04-06T00:56:23;16.83;;;11.90;;
20982;SDS011;10650;51.528;6.748;2023-04-06T00:58:53;19.63;;;12.27;;
20982;SDS011;10650;51.528;6.748;2023-04-06T01:01:22;20.23;;;12.52;;
20982;SDS011;10650;51.528;6.748;2023-04-06T01:03:51;17.52;;;13.10;;
20982;SDS011;10650;51.528;6.748;2023-04-06T01:06:20;22.00;;;13.05;;
20982;SDS011;10650;51.528;6.748;2023-04-06T01:08:48;18.50;;;13.07;;
20982;SDS011;10650;51.528;6.748;2023-04-06T01:11:17;21.23;;;13.57;;
20982;SDS011;10650;51.528;6.748;2023-04-06T01:13:44;21.80;;;13.43;;
20982;SDS011;10650;51.528;6.748;2023-04-06T01:16:14;20.67;;;13.65;;
20982;SDS011;10650;51.528;6.748;2023-04-06T01:18:42;22.15;;;14.60;;
20982;SDS011;10650;51.528;6.748;2023-04-06T01:21:10;21.05;;;14.05;;
20982;SDS011;10650;51.528;6.748;2023-04-06T01:23:43;19.27;;;13.57;;
20982;SDS011;10650;51.528;6.748;2023-04-06T01:26:12;21.88;;;13.85;;
20982;SDS011;10650;51.528;6.748;2023-04-06T01:28:40;25.20;;;14.52;;
20982;SDS011;10650;51.528;6.748;2023-04-06T01:31:08;23.00;;;14.43;;
20982;SDS011;10650;51.528;6.748;2023-04-06T01:33:37;22.52;;;13.95;;
20982;SDS011;10650;51.528;6.748;2023-04-06T01:36:05;21.90;;;13.80;;
20982;SDS011;10650;51.528;6.748;2023-04-06T01:38:33;19.95;;;14.25;;
20982;SDS011;10650;51.528;6.748;2023-04-06T01:41:02;19.67;;;13.70;;
20982;SDS011;10650;51.528;6.748;2023-04-06T01:43:30;20.08;;;14.32;;
20982;SDS011;10650;51.528;6.748;2023-04-06T01:45:58;21.10;;;13.93;;
20982;SDS011;10650;51.528;6.748;2023-04-06T01:48:26;16.95;;;12.27;;
20982;SDS011;10650;51.528;6.748;2023-04-06T01:50:54;18.52;;;11.80;;
20982;SDS011;10650;51.528;6.748;2023-04-06T01:53:22;18.40;;;12.52;;
20982;SDS011;10650;51.528;6.748;2023-04-06T01:55:50;18.25;;;13.02;;
20982;SDS011;10650;51.528;6.748;2023-04-06T01:58:19;19.77;;;13.13;;
20982;SDS011;10650;51.528;6.748;2023-04-06T02:00:47;19.73;;;12.82;;
20982;SDS011;10650;51.528;6.748;2023-04-06T02:03:15;19.13;;;12.73;;
20982;SDS011;10650;51.528;6.748;2023-04-06T02:05:43;19.60;;;12.82;;
20982;SDS011;10650;51.528;6.748;2023-04-06T02:08:11;17.40;;;12.30;;
20982;SDS011;10650;51.528;6.748;2023-04-06T02:10:39;16.10;;;11.88;;
20982;SDS011;10650;51.528;6.748;2023-04-06T02:13:07;20.42;;;13.13;;
20982;SDS011;10650;51.528;6.748;2023-04-06T02:15:36;19.85;;;11.88;;
20982;SDS011;10650;51.528;6.748;2023-04-06T02:18:04;19.00;;;11.98;;
20982;SDS011;10650;51.528;6.748;2023-04-06T02:20:32;19.73;;;11.88;;
20982;SDS011;10650;51.528;6.748;2023-04-06T02:23:00;44.72;;;27.13;;
20982;SDS011;10650;51.528;6.748;2023-04-06T02:25:28;35.65;;;19.75;;
20982;SDS011;10650;51.528;6.748;2023-04-06T02:27:56;21.35;;;14.05;;
20982;SDS011;10650;51.528;6.748;2023-04-06T02:30:24;17.25;;;12.77;;
20982;SDS011;10650;51.528;6.748;2023-04-06T02:32:53;18.35;;;12.25;;
20982;SDS011;10650;51.528;6.748;2023-04-06T02:35:21;20.48;;;12.73;;
20982;SDS011;10650;51.528;6.748;2023-04-06T02:37:49;18.85;;;12.75;;
20982;SDS011;10650;51.528;6.748;2023-04-06T02:40:17;23.63;;;14.60;;
20982;SDS011;10650;51.528;6.748;2023-04-06T02:42:45;38.10;;;23.13;;
20982;SDS011;10650;51.528;6.748;2023-04-06T02:45:13;39.95;;;22.58;;
20982;SDS011;10650;51.528;6.748;2023-04-06T02:47:41;22.63;;;14.18;;
20982;SDS011;10650;51.528;6.748;2023-04-06T02:50:11;23.27;;;14.60;;
20982;SDS011;10650;51.528;6.748;2023-04-06T02:52:39;21.30;;;13.70;;
20982;SDS011;10650;51.528;6.748;2023-04-06T02:55:07;21.65;;;14.07;;
20982;SDS011;10650;51.528;6.748;2023-04-06T02:57:35;20.27;;;13.25;;
20982;SDS011;10650;51.528;6.748;2023-04-06T03:00:03;22.15;;;14.07;;
20982;SDS011;10650;51.528;6.748;2023-04-06T03:02:32;23.73;;;14.70;;
20982;SDS011;10650;51.528;6.748;2023-04-06T03:05:01;22.98;;;13.73;;
20982;SDS011;10650;51.528;6.748;2023-04-06T03:07:31;21.92;;;13.80;;
20982;SDS011;10650;51.528;6.748;2023-04-06T03:09:59;20.63;;;13.68;;
20982;SDS011;10650;51.528;6.748;2023-04-06T03:12:27;20.42;;;12.98;;
20982;SDS011;10650;51.528;6.748;2023-04-06T03:14:54;18.00;;;13.80;;
20982;SDS011;10650;51.528;6.748;2023-04-06T03:17:22;23.88;;;14.27;;
20982;SDS011;10650;51.528;6.748;2023-04-06T03:19:50;24.23;;;15.60;;
20982;SDS011;10650;51.528;6.748;2023-04-06T03:22:19;22.02;;;13.68;;
20982;SDS011;10650;51.528;6.748;2023-04-06T03:24:48;24.75;;;14.57;;
20982;SDS011;10650;51.528;6.748;2023-04-06T03:27:16;22.50;;;14.27;;
20982;SDS011;10650;51.528;6.748;2023-04-06T03:29:44;23.00;;;14.35;;
20982;SDS011;10650;51.528;6.748;2023-04-06T03:32:12;21.60;;;14.13;;
20982;SDS011;10650;51.528;6.748;2023-04-06T03:34:40;22.52;;;14.90;;
20982;SDS011;10650;51.528;6.748;2023-04-06T03:37:08;22.63;;;14.05;;
20982;SDS011;10650;51.528;6.748;2023-04-06T03:39:36;24.30;;;14.25;;
20982;SDS011;10650;51.528;6.748;2023-04-06T03:42:05;21.80;;;14.95;;
20982;SDS011;10650;51.528;6.748;2023-04-06T03:44:33;21.55;;;14.95;;
20982;SDS011;10650;51.528;6.748;2023-04-06T03:47:01;26.67;;;15.55;;
20982;SDS011;10650;51.528;6.748;2023-04-06T03:49:29;25.73;;;15.07;;
20982;SDS011;10650;51.528;6.748;2023-04-06T03:51:57;25.70;;;16.17;;
20982;SDS011;10650;51.528;6.748;2023-04-06T03:54:24;26.75;;;16.10;;
20982;SDS011;10650;51.528;6.748;2023-04-06T03:56:52;24.73;;;15.38;;
20982;SDS011;10650;51.528;6.748;2023-04-06T03:59:22;22.83;;;15.63;;
20982;SDS011;10650;51.528;6.748;2023-04-06T04:01:50;23.85;;;14.98;;
20982;SDS011;10650;51.528;6.748;2023-04-06T04:04:18;28.77;;;16.35;;
20982;SDS011;10650;51.528;6.748;2023-04-06T04:06:46;23.52;;;15.38;;
20982;SDS011;10650;51.528;6.748;2023-04-06T04:09:14;23.13;;;15.60;;
20982;SDS011;10650;51.528;6.748;2023-04-06T04:11:42;23.95;;;15.10;;
20982;SDS011;10650;51.528;6.748;2023-04-06T04:14:09;23.95;;;14.70;;
20982;SDS011;10650;51.528;6.748;2023-04-06T04:16:39;23.02;;;16.00;;
20982;SDS011;10650;51.528;6.748;2023-04-06T04:19:08;27.58;;;17.45;;
20982;SDS011;10650;51.528;6.748;2023-04-06T04:21:41;24.60;;;15.95;;
20982;SDS011;10650;51.528;6.748;2023-04-06T04:24:11;23.98;;;15.77;;
20982;SDS011;10650;51.528;6.748;2023-04-06T04:26:39;24.77;;;16.13;;
20982;SDS011;10650;51.528;6.748;2023-04-06T04:29:07;21.95;;;15.43;;
20982;SDS011;10650;51.528;6.748;2023-04-06T04:31:35;25.00;;;16.10;;
20982;SDS011;10650;51.528;6.748;2023-04-06T04:34:05;22.08;;;15.98;;
20982;SDS011;10650;51.528;6.748;2023-04-06T04:36:34;22.75;;;15.55;;
20982;SDS011;10650;51.528;6.748;2023-04-06T04:39:02;21.40;;;14.93;;
20982;SDS011;10650;51.528;6.748;2023-04-06T04:41:30;21.77;;;15.52;;
20982;SDS011;10650;51.528;6.748;2023-04-06T04:43:57;21.67;;;15.55;;
20982;SDS011;10650;51.528;6.748;2023-04-06T04:46:25;21.63;;;15.25;;
20982;SDS011;10650;51.528;6.748;2023-04-06T04:48:53;22.23;;;16.05;;
20982;SDS011;10650;51.528;6.748;2023-04-06T04:51:22;22.25;;;15.68;;
20982;SDS011;10650;51.528;6.748;2023-04-06T04:53:51;25.15;;;16.05;;
20982;SDS011;10650;51.528;6.748;2023-04-06T04:56:18;24.42;;;15.65;;
20982;SDS011;10650;51.528;6.748;2023-04-06T04:58:46;22.38;;;15.23;;
20982;SDS011;10650;51.528;6.748;2023-04-06T05:01:14;20.40;;;13.50;;
20982;SDS011;10650;51.528;6.748;2023-04-06T05:03:42;20.58;;;14.52;;
20982;SDS011;10650;51.528;6.748;2023-04-06T05:06:10;22.60;;;15.88;;
20982;SDS011;10650;51.528;6.748;2023-04-06T05:08:40;23.02;;;16.75;;
20982;SDS011;10650;51.528;6.748;2023-04-06T05:11:08;25.30;;;16.83;;
20982;SDS011;10650;51.528;6.748;2023-04-06T05:13:36;27.10;;;17.08;;
20982;SDS011;10650;51.528;6.748;2023-04-06T05:16:04;27.77;;;16.63;;
20982;SDS011;10650;51.528;6.748;2023-04-06T05:18:32;29.73;;;17.42;;
20982;SDS011;10650;51.528;6.748;2023-04-06T05:21:00;28.45;;;17.33;;
20982;SDS011;10650;51.528;6.748;2023-04-06T05:23:28;31.58;;;18.75;;
20982;SDS011;10650;51.528;6.748;2023-04-06T05:25:57;28.85;;;17.45;;
20982;SDS011;10650;51.528;6.748;2023-04-06T05:28:25;32.65;;;19.45;;
20982;SDS011;10650;51.528;6.748;2023-04-06T05:30:53;27.80;;;17.73;;
20982;SDS011;10650;51.528;6.748;2023-04-06T05:33:21;30.15;;;18.50;;
20982;SDS011;10650;51.528;6.748;2023-04-06T05:35:49;32.88;;;18.83;;
20982;SDS011;10650;51.528;6.748;2023-04-06T05:38:17;38.47;;;21.73;;
20982;SDS011;10650;51.528;6.748;2023-04-06T05:40:45;35.20;;;19.90;;
20982;SDS011;10650;51.528;6.748;2023-04-06T05:43:15;30.80;;;18.20;;
20982;SDS011;10650;51.528;6.748;2023-04-06T05:45:43;29.08;;;17.48;;
20982;SDS011;10650;51.528;6.748;2023-04-06T05:48:12;27.98;;;16.65;;
20982;SDS011;10650;51.528;6.748;2023-04-06T05:50:39;28.20;;;16.70;;
20982;SDS011;10650;51.528;6.748;2023-04-06T05:53:07;35.60;;;17.33;;
20982;SDS011;10650;51.528;6.748;2023-04-06T05:55:35;30.33;;;15.98;;
20982;SDS011;10650;51.528;6.748;2023-04-06T05:58:03;33.58;;;17.23;;
20982;SDS011;10650;51.528;6.748;2023-04-06T06:00:32;37.50;;;17.90;;
20982;SDS011;10650;51.528;6.748;2023-04-06T06:03:00;28.95;;;17.20;;
20982;SDS011;10650;51.528;6.748;2023-04-06T06:05:30;30.75;;;17.23;;
20982;SDS011;10650;51.528;6.748;2023-04-06T06:07:58;26.40;;;15.60;;
20982;SDS011;10650;51.528;6.748;2023-04-06T06:10:28;26.10;;;14.80;;
20982;SDS011;10650;51.528;6.748;2023-04-06T06:12:56;23.33;;;13.85;;
20982;SDS011;10650;51.528;6.748;2023-04-06T06:15:24;19.13;;;13.75;;
20982;SDS011;10650;51.528;6.748;2023-04-06T06:17:54;24.23;;;13.48;;
20982;SDS011;10650;51.528;6.748;2023-04-06T06:20:21;22.85;;;13.05;;
20982;SDS011;10650;51.528;6.748;2023-04-06T06:22:49;19.70;;;12.55;;
20982;SDS011;10650;51.528;6.748;2023-04-06T06:25:17;22.20;;;12.27;;
20982;SDS011;10650;51.528;6.748;2023-04-06T06:27:45;19.63;;;12.52;;
20982;SDS011;10650;51.528;6.748;2023-04-06T06:30:13;16.25;;;12.18;;
20982;SDS011;10650;51.528;6.748;2023-04-06T06:35:15;15.35;;;10.40;;
20982;SDS011;10650;51.528;6.748;2023-04-06T06:37:43;19.23;;;10.38;;
20982;SDS011;10650;51.528;6.748;2023-04-06T06:40:11;16.70;;;10.35;;
20982;SDS011;10650;51.528;6.748;2023-04-06T06:42:42;16.27;;;10.05;;
20982;SDS011;10650;51.528;6.748;2023-04-06T06:45:10;14.52;;;9.73;;
20982;SDS011;10650;51.528;6.748;2023-04-06T06:47:38;18.80;;;11.10;;
20982;SDS011;10650;51.528;6.748;2023-04-06T06:50:07;14.77;;;9.70;;
20982;SDS011;10650;51.528;6.748;2023-04-06T06:52:37;15.57;;;10.32;;
20982;SDS011;10650;51.528;6.748;2023-04-06T06:55:05;15.15;;;10.13;;
20982;SDS011;10650;51.528;6.748;2023-04-06T06:57:34;16.98;;;10.85;;
20982;SDS011;10650;51.528;6.748;2023-04-06T07:00:02;13.40;;;9.57;;
20982;SDS011;10650;51.528;6.748;2023-04-06T07:02:31;14.27;;;10.00;;
20982;SDS011;10650;51.528;6.748;2023-04-06T07:04:59;15.05;;;9.95;;
20982;SDS011;10650;51.528;6.748;2023-04-06T07:07:33;20.83;;;13.77;;
20982;SDS011;10650;51.528;6.748;2023-04-06T07:10:02;14.80;;;10.43;;
20982;SDS011;10650;51.528;6.748;2023-04-06T07:12:30;14.50;;;10.38;;
20982;SDS011;10650;51.528;6.748;2023-04-06T07:15:01;14.40;;;10.30;;
20982;SDS011;10650;51.528;6.748;2023-04-06T07:17:29;15.57;;;10.13;;
20982;SDS011;10650;51.528;6.748;2023-04-06T07:19:56;14.38;;;10.18;;
20982;SDS011;10650;51.528;6.748;2023-04-06T07:22:24;14.02;;;10.10;;
20982;SDS011;10650;51.528;6.748;2023-04-06T07:24:52;16.90;;;10.55;;
20982;SDS011;10650;51.528;6.748;2023-04-06T07:27:22;16.67;;;10.35;;
20982;SDS011;10650;51.528;6.748;2023-04-06T07:29:50;14.32;;;9.93;;
20982;SDS011;10650;51.528;6.748;2023-04-06T07:32:18;15.43;;;10.43;;
20982;SDS011;10650;51.528;6.748;2023-04-06T07:34:46;13.05;;;9.75;;
20982;SDS011;10650;51.528;6.748;2023-04-06T07:37:13;14.02;;;10.85;;
20982;SDS011;10650;51.528;6.748;2023-04-06T07:39:42;15.98;;;10.95;;
20982;SDS011;10650;51.528;6.748;2023-04-06T07:42:10;16.75;;;10.75;;
20982;SDS011;10650;51.528;6.748;2023-04-06T07:44:39;14.95;;;10.35;;
20982;SDS011;10650;51.528;6.748;2023-04-06T07:47:07;13.27;;;10.10;;
20982;SDS011;10650;51.528;6.748;2023-04-06T07:49:35;15.98;;;9.93;;
20982;SDS011;10650;51.528;6.748;2023-04-06T07:52:03;12.25;;;10.10;;
20982;SDS011;10650;51.528;6.748;2023-04-06T07:54:31;13.18;;;10.07;;
20982;SDS011;10650;51.528;6.748;2023-04-06T07:56:59;16.38;;;10.63;;
20982;SDS011;10650;51.528;6.748;2023-04-06T07:59:27;17.20;;;10.85;;
20982;SDS011;10650;51.528;6.748;2023-04-06T08:01:56;16.92;;;10.38;;
20982;SDS011;10650;51.528;6.748;2023-04-06T08:04:24;16.00;;;10.45;;
20982;SDS011;10650;51.528;6.748;2023-04-06T08:06:52;17.02;;;10.73;;
20982;SDS011;10650;51.528;6.748;2023-04-06T08:09:20;15.57;;;10.98;;
20982;SDS011;10650;51.528;6.748;2023-04-06T08:11:48;16.40;;;11.80;;
20982;SDS011;10650;51.528;6.748;2023-04-06T08:14:16;16.10;;;11.38;;
20982;SDS011;10650;51.528;6.748;2023-04-06T08:16:44;17.25;;;11.60;;
20982;SDS011;10650;51.528;6.748;2023-04-06T08:19:13;18.23;;;13.00;;
20982;SDS011;10650;51.528;6.748;2023-04-06T08:21:43;15.40;;;10.52;;
20982;SDS011;10650;51.528;6.748;2023-04-06T08:24:12;15.30;;;10.57;;
20982;SDS011;10650;51.528;6.748;2023-04-06T08:26:40;15.75;;;10.57;;
20982;SDS011;10650;51.528;6.748;2023-04-06T08:29:08;13.45;;;10.57;;
20982;SDS011;10650;51.528;6.748;2023-04-06T08:31:37;14.50;;;10.93;;
20982;SDS011;10650;51.528;6.748;2023-04-06T08:34:05;17.58;;;10.40;;
20982;SDS011;10650;51.528;6.748;2023-04-06T08:36:38;15.43;;;11.13;;
20982;SDS011;10650;51.528;6.748;2023-04-06T08:39:06;14.63;;;10.98;;
20982;SDS011;10650;51.528;6.748;2023-04-06T08:41:34;15.52;;;11.65;;
20982;SDS011;10650;51.528;6.748;2023-04-06T08:44:03;18.90;;;11.18;;
20982;SDS011;10650;51.528;6.748;2023-04-06T08:46:31;15.73;;;11.48;;
20982;SDS011;10650;51.528;6.748;2023-04-06T08:48:59;16.55;;;11.50;;
20982;SDS011;10650;51.528;6.748;2023-04-06T08:51:29;15.80;;;11.70;;
20982;SDS011;10650;51.528;6.748;2023-04-06T08:53:59;17.63;;;11.65;;
20982;SDS011;10650;51.528;6.748;2023-04-06T08:56:27;18.05;;;12.10;;
20982;SDS011;10650;51.528;6.748;2023-04-06T08:58:56;14.80;;;11.90;;
20982;SDS011;10650;51.528;6.748;2023-04-06T09:01:25;15.63;;;11.52;;
20982;SDS011;10650;51.528;6.748;2023-04-06T09:03:55;16.70;;;12.48;;
20982;SDS011;10650;51.528;6.748;2023-04-06T09:06:25;19.58;;;14.77;;
20982;SDS011;10650;51.528;6.748;2023-04-06T09:08:54;21.85;;;13.40;;
20982;SDS011;10650;51.528;6.748;2023-04-06T09:11:24;20.20;;;14.38;;
20982;SDS011;10650;51.528;6.748;2023-04-06T09:13:53;18.35;;;13.48;;
20982;SDS011;10650;51.528;6.748;2023-04-06T09:16:23;22.00;;;13.45;;
20982;SDS011;10650;51.528;6.748;2023-04-06T09:18:52;18.23;;;13.65;;
20982;SDS011;10650;51.528;6.748;2023-04-06T09:21:20;18.20;;;13.50;;
20982;SDS011;10650;51.528;6.748;2023-04-06T09:23:57;18.15;;;12.80;;
20982;SDS011;10650;51.528;6.748;2023-04-06T09:26:28;19.83;;;13.65;;
20982;SDS011;10650;51.528;6.748;2023-04-06T09:28:59;17.40;;;13.38;;
20982;SDS011;10650;51.528;6.748;2023-04-06T09:31:30;19.17;;;13.32;;
20982;SDS011;10650;51.528;6.748;2023-04-06T09:33:59;18.63;;;13.07;;
20982;SDS011;10650;51.528;6.748;2023-04-06T09:36:31;19.75;;;14.65;;
20982;SDS011;10650;51.528;6.748;2023-04-06T09:39:00;21.65;;;15.10;;
20982;SDS011;10650;51.528;6.748;2023-04-06T09:41:31;22.83;;;16.15;;
20982;SDS011;10650;51.528;6.748;2023-04-06T09:44:03;18.98;;;15.00;;
20982;SDS011;10650;51.528;6.748;2023-04-06T09:46:33;19.88;;;13.93;;
20982;SDS011;10650;51.528;6.748;2023-04-06T09:49:21;20.33;;;14.43;;
20982;SDS011;10650;51.528;6.748;2023-04-06T09:51:53;20.15;;;13.93;;
20982;SDS011;10650;51.528;6.748;2023-04-06T09:54:23;26.10;;;17.65;;
20982;SDS011;10650;51.528;6.748;2023-04-06T09:56:58;26.00;;;17.33;;
20982;SDS011;10650;51.528;6.748;2023-04-06T09:59:38;20.33;;;15.40;;
20982;SDS011;10650;51.528;6.748;2023-04-06T10:02:15;21.83;;;15.20;;
20982;SDS011;10650;51.528;6.748;2023-04-06T10:04:53;21.70;;;14.77;;
20982;SDS011;10650;51.528;6.748;2023-04-06T10:07:25;20.00;;;13.57;;
20982;SDS011;10650;51.528;6.748;2023-04-06T10:09:54;18.25;;;14.05;;
20982;SDS011;10650;51.528;6.748;2023-04-06T10:12:24;20.98;;;13.95;;
20982;SDS011;10650;51.528;6.748;2023-04-06T10:14:52;20.30;;;13.50;;
20982;SDS011;10650;51.528;6.748;2023-04-06T10:17:21;17.83;;;13.63;;
20982;SDS011;10650;51.528;6.748;2023-04-06T10:19:52;20.13;;;13.70;;
20982;SDS011;10650;51.528;6.748;2023-04-06T10:22:26;24.98;;;14.55;;
20982;SDS011;10650;51.528;6.748;2023-04-06T10:25:03;20.50;;;15.02;;
20982;SDS011;10650;51.528;6.748;2023-04-06T10:27:33;18.55;;;13.98;;
20982;SDS011;10650;51.528;6.748;2023-04-06T10:30:01;19.92;;;13.85;;
20982;SDS011;10650;51.528;6.748;2023-04-06T10:32:34;20.98;;;15.50;;
20982;SDS011;10650;51.528;6.748;2023-04-06T10:35:07;23.92;;;15.52;;
20982;SDS011;10650;51.528;6.748;2023-04-06T10:37:52;23.52;;;15.75;;
20982;SDS011;10650;51.528;6.748;2023-04-06T10:40:21;21.27;;;15.85;;
20982;SDS011;10650;51.528;6.748;2023-04-06T10:42:54;20.45;;;15.95;;
20982;SDS011;10650;51.528;6.748;2023-04-06T10:45:24;21.10;;;15.32;;
20982;SDS011;10650;51.528;6.748;2023-04-06T10:47:53;25.42;;;17.48;;
20982;SDS011;10650;51.528;6.748;2023-04-06T10:50:22;22.35;;;15.30;;
20982;SDS011;10650;51.528;6.748;2023-04-06T10:53:00;22.40;;;14.98;;
20982;SDS011;10650;51.528;6.748;2023-04-06T10:55:29;20.10;;;14.73;;
20982;SDS011;10650;51.528;6.748;2023-04-06T10:57:59;20.08;;;15.02;;
20982;SDS011;10650;51.528;6.748;2023-04-06T11:00:27;19.92;;;13.85;;
20982;SDS011;10650;51.528;6.748;2023-04-06T11:03:12;20.05;;;14.25;;
20982;SDS011;10650;51.528;6.748;2023-04-06T11:05:43;21.92;;;14.57;;
20982;SDS011;10650;51.528;6.748;2023-04-06T11:08:21;22.27;;;14.93;;
20982;SDS011;10650;51.528;6.748;2023-04-06T11:10:50;20.38;;;15.05;;
20982;SDS011;10650;51.528;6.748;2023-04-06T11:13:19;21.23;;;15.10;;
20982;SDS011;10650;51.528;6.748;2023-04-06T11:15:47;23.55;;;14.85;;
20982;SDS011;10650;51.528;6.748;2023-04-06T11:18:17;22.67;;;15.40;;
20982;SDS011;10650;51.528;6.748;2023-04-06T11:20:47;24.90;;;15.75;;
20982;SDS011;10650;51.528;6.748;2023-04-06T11:23:22;25.58;;;15.35;;
20982;SDS011;10650;51.528;6.748;2023-04-06T11:25:51;20.88;;;15.27;;
20982;SDS011;10650;51.528;6.748;2023-04-06T11:28:20;20.98;;;14.70;;
20982;SDS011;10650;51.528;6.748;2023-04-06T11:30:48;23.33;;;15.40;;
20982;SDS011;10650;51.528;6.748;2023-04-06T11:33:20;21.95;;;15.23;;
20982;SDS011;10650;51.528;6.748;2023-04-06T11:35:48;26.27;;;17.50;;
20982;SDS011;10650;51.528;6.748;2023-04-06T11:38:17;23.83;;;17.15;;
20982;SDS011;10650;51.528;6.748;2023-04-06T11:40:47;25.95;;;18.05;;
20982;SDS011;10650;51.528;6.748;2023-04-06T11:43:27;23.58;;;17.25;;
20982;SDS011;10650;51.528;6.748;2023-04-06T11:46:01;20.88;;;15.27;;
20982;SDS011;10650;51.528;6.748;2023-04-06T11:48:30;22.10;;;15.75;;
20982;SDS011;10650;51.528;6.748;2023-04-06T11:50:59;21.73;;;16.00;;
20982;SDS011;10650;51.528;6.748;2023-04-06T11:53:28;23.00;;;15.68;;
20982;SDS011;10650;51.528;6.748;2023-04-06T11:55:56;22.13;;;16.50;;
20982;SDS011;10650;51.528;6.748;2023-04-06T11:58:27;21.23;;;15.85;;
20982;SDS011;10650;51.528;6.748;2023-04-06T12:01:02;19.67;;;16.58;;
20982;SDS011;10650;51.528;6.748;2023-04-06T12:03:30;24.08;;;17.13;;
20982;SDS011;10650;51.528;6.748;2023-04-06T12:05:59;20.80;;;16.02;;
20982;SDS011;10650;51.528;6.748;2023-04-06T12:08:26;21.45;;;15.55;;
20982;SDS011;10650;51.528;6.748;2023-04-06T12:10:54;24.52;;;15.90;;
20982;SDS011;10650;51.528;6.748;2023-04-06T12:13:22;24.10;;;16.25;;
20982;SDS011;10650;51.528;6.748;2023-04-06T12:15:52;24.00;;;16.45;;
20982;SDS011;10650;51.528;6.748;2023-04-06T12:18:20;28.83;;;20.15;;
20982;SDS011;10650;51.528;6.748;2023-04-06T12:20:48;21.20;;;15.48;;
20982;SDS011;10650;51.528;6.748;2023-04-06T12:23:16;23.17;;;15.65;;
20982;SDS011;10650;51.528;6.748;2023-04-06T12:25:44;22.60;;;15.65;;
20982;SDS011;10650;51.528;6.748;2023-04-06T12:28:12;24.83;;;16.15;;
20982;SDS011;10650;51.528;6.748;2023-04-06T12:30:40;23.77;;;15.68;;
20982;SDS011;10650;51.528;6.748;2023-04-06T12:33:09;21.42;;;14.93;;
20982;SDS011;10650;51.528;6.748;2023-04-06T12:35:37;21.98;;;15.50;;
20982;SDS011;10650;51.528;6.748;2023-04-06T12:38:05;23.25;;;15.73;;
20982;SDS011;10650;51.528;6.748;2023-04-06T12:40:36;24.92;;;16.33;;
20982;SDS011;10650;51.528;6.748;2023-04-06T12:43:04;18.95;;;14.65;;
20982;SDS011;10650;51.528;6.748;2023-04-06T12:45:32;19.70;;;14.95;;
20982;SDS011;10650;51.528;6.748;2023-04-06T12:48:00;20.33;;;15.13;;
20982;SDS011;10650;51.528;6.748;2023-04-06T12:50:29;18.40;;;14.18;;
20982;SDS011;10650;51.528;6.748;2023-04-06T12:52:58;18.98;;;14.98;;
20982;SDS011;10650;51.528;6.748;2023-04-06T12:55:26;16.67;;;12.48;;
20982;SDS011;10650;51.528;6.748;2023-04-06T12:57:57;13.97;;;11.27;;
20982;SDS011;10650;51.528;6.748;2023-04-06T13:00:25;13.68;;;10.73;;
20982;SDS011;10650;51.528;6.748;2023-04-06T13:02:53;17.10;;;11.45;;
20982;SDS011;10650;51.528;6.748;2023-04-06T13:05:21;16.23;;;11.88;;
20982;SDS011;10650;51.528;6.748;2023-04-06T13:07:53;16.40;;;11.30;;
20982;SDS011;10650;51.528;6.748;2023-04-06T13:10:20;14.73;;;10.98;;
20982;SDS011;10650;51.528;6.748;2023-04-06T13:12:48;13.35;;;10.93;;
20982;SDS011;10650;51.528;6.748;2023-04-06T13:15:16;12.02;;;10.02;;
20982;SDS011;10650;51.528;6.748;2023-04-06T13:17:45;12.13;;;10.13;;
20982;SDS011;10650;51.528;6.748;2023-04-06T13:20:12;12.98;;;9.60;;
20982;SDS011;10650;51.528;6.748;2023-04-06T13:22:40;14.20;;;10.13;;
20982;SDS011;10650;51.528;6.748;2023-04-06T13:25:10;13.80;;;10.45;;
20982;SDS011;10650;51.528;6.748;2023-04-06T13:27:37;10.70;;;8.55;;
20982;SDS011;10650;51.528;6.748;2023-04-06T13:30:06;10.32;;;8.52;;
20982;SDS011;10650;51.528;6.748;2023-04-06T13:32:37;10.43;;;8.18;;
20982;SDS011;10650;51.528;6.748;2023-04-06T13:35:07;11.93;;;7.97;;
20982;SDS011;10650;51.528;6.748;2023-04-06T13:37:50;10.82;;;8.75;;
20982;SDS011;10650;51.528;6.748;2023-04-06T13:40:26;11.10;;;8.65;;
20982;SDS011;10650;51.528;6.748;2023-04-06T13:43:31;12.85;;;7.40;;
20982;SDS011;10650;51.528;6.748;2023-04-06T13:45:59;12.32;;;8.05;;
20982;SDS011;10650;51.528;6.748;2023-04-06T13:48:27;19.08;;;8.93;;
20982;SDS011;10650;51.528;6.748;2023-04-06T13:51:07;15.82;;;8.77;;
20982;SDS011;10650;51.528;6.748;2023-04-06T13:53:35;14.13;;;9.07;;
20982;SDS011;10650;51.528;6.748;2023-04-06T13:56:08;12.13;;;9.02;;
20982;SDS011;10650;51.528;6.748;2023-04-06T13:58:36;12.43;;;9.00;;
20982;SDS011;10650;51.528;6.748;2023-04-06T14:01:07;10.25;;;8.82;;
20982;SDS011;10650;51.528;6.748;2023-04-06T14:03:37;14.52;;;10.52;;
20982;SDS011;10650;51.528;6.748;2023-04-06T14:06:09;11.48;;;9.13;;
20982;SDS011;10650;51.528;6.748;2023-04-06T14:08:55;11.70;;;8.90;;
20982;SDS011;10650;51.528;6.748;2023-04-06T14:11:24;11.48;;;9.48;;
20982;SDS011;10650;51.528;6.748;2023-04-06T14:13:53;12.27;;;9.63;;
20982;SDS011;10650;51.528;6.748;2023-04-06T14:16:24;11.70;;;10.32;;
20982;SDS011;10650;51.528;6.748;2023-04-06T14:18:52;15.73;;;10.07;;
20982;SDS011;10650;51.528;6.748;2023-04-06T14:21:21;15.93;;;10.38;;
20982;SDS011;10650;51.528;6.748;2023-04-06T14:23:49;13.35;;;10.00;;
20982;SDS011;10650;51.528;6.748;2023-04-06T14:26:18;13.23;;;10.75;;
20982;SDS011;10650;51.528;6.748;2023-04-06T14:28:48;12.95;;;9.38;;
20982;SDS011;10650;51.528;6.748;2023-04-06T14:31:16;12.98;;;9.35;;
20982;SDS011;10650;51.528;6.748;2023-04-06T14:33:45;12.05;;;10.00;;
20982;SDS011;10650;51.528;6.748;2023-04-06T14:36:13;12.48;;;9.70;;
20982;SDS011;10650;51.528;6.748;2023-04-06T14:38:41;14.93;;;10.40;;